sensor_id;sensor_type;location;lat;lon;timestamp;pressure;altitude;pressure_sealevel;temperature;humidity
17054;BME280;8643;48.824;11.422;2023-11-19T00:00:28;97002.94;;;3.91;100.00
17054;BME280;8643;48.824;11.422;2023-11-19T00:02:58;96997.78;;;3.90;100.00
17054;BME280;8643;48.824;11.422;2023-11-19T00:05:26;97000.44;;;3.95;100.00
17054;BME280;8643;48.824;11.422;2023-11-19T00:07:56;96991.19;;;3.96;100.00
17054;BME280;8643;48.824;11.422;2023-11-19T00:10:24;96993.91;;;3.96;100.00
17054;BME280;8643;48.824;11.422;2023-11-19T00:12:52;96982.56;;;3.94;100.00
17054;BME280;8643;48.824;11.422;2023-11-19T00:15:21;96987.91;;;3.99;100.00
17054;BME280;8643;48.824;11.422;2023-11-19T00:17:51;96977.63;;;4.01;100.00
17054;BME280;8643;48.824;11.422;2023-11-19T00:20:21;96969.78;;;3.99;100.00
17054;BME280;8643;48.824;11.422;2023-11-19T00:22:50;96969.53;;;3.96;100.00
17054;BME280;8643;48.824;11.422;2023-11-19T00:25:21;96970.41;;;3.91;100.00
17054;BME280;8643;48.824;11.422;2023-11-19T00:27:50;96974.44;;;3.94;100.00
17054;BME280;8643;48.824;11.422;2023-11-19T00:30:21;96957.38;;;3.93;100.00
17054;BME280;8643;48.824;11.422;2023-11-19T00:32:49;96953.03;;;3.92;100.00
17054;BME280;8643;48.824;11.422;2023-11-19T00:35:18;96950.84;;;3.94;100.00
17054;BME280;8643;48.824;11.422;2023-11-19T00:37:48;96956.28;;;3.94;100.00
17054;BME280;8643;48.824;11.422;2023-11-19T00:40:17;96947.56;;;3.97;100.00
17054;BME280;8643;48.824;11.422;2023-11-19T00:42:49;96948.41;;;3.98;100.00
17054;BME280;8643;48.824;11.422;2023-11-19T00:45:17;96957.03;;;4.00;100.00
17054;BME280;8643;48.824;11.422;2023-11-19T00:47:46;96943.84;;;3.93;100.00
17054;BME280;8643;48.824;11.422;2023-11-19T00:50:16;96928.88;;;3.96;100.00
17054;BME280;8643;48.824;11.422;2023-11-19T00:52:47;96922.97;;;3.94;100.00
17054;BME280;8643;48.824;11.422;2023-11-19T00:55:15;96915.34;;;3.96;100.00
17054;BME280;8643;48.824;11.422;2023-11-19T00:57:44;96918.34;;;3.94;100.00
17054;BME280;8643;48.824;11.422;2023-11-19T01:00:14;96918.34;;;3.94;100.00
17054;BME280;8643;48.824;11.422;2023-11-19T01:02:47;96924.00;;;3.98;100.00
17054;BME280;8643;48.824;11.422;2023-11-19T01:05:20;96923.47;;;3.96;100.00
17054;BME280;8643;48.824;11.422;2023-11-19T01:07:52;96917.75;;;3.97;100.00
17054;BME280;8643;48.824;11.422;2023-11-19T01:10:22;96927.28;;;3.95;100.00
17054;BME280;8643;48.824;11.422;2023-11-19T01:12:52;96927.00;;;3.96;100.00
17054;BME280;8643;48.824;11.422;2023-11-19T01:15:21;96918.59;;;3.98;100.00
17054;BME280;8643;48.824;11.422;2023-11-19T01:17:50;96913.16;;;3.98;100.00
17054;BME280;8643;48.824;11.422;2023-11-19T01:20:20;96907.47;;;3.99;100.00
17054;BME280;8643;48.824;11.422;2023-11-19T01:22:49;96903.34;;;4.02;100.00
17054;BME280;8643;48.824;11.422;2023-11-19T01:25:19;96905.03;;;3.98;100.00
17054;BME280;8643;48.824;11.422;2023-11-19T01:27:47;96898.50;;;3.99;100.00
17054;BME280;8643;48.824;11.422;2023-11-19T01:30:17;96901.78;;;3.96;100.00
17054;BME280;8643;48.824;11.422;2023-11-19T01:32:49;96899.91;;;3.96;100.00
17054;BME280;8643;48.824;11.422;2023-11-19T01:35:19;96893.09;;;3.99;100.00
17054;BME280;8643;48.824;11.422;2023-11-19T01:37:50;96900.13;;;4.00;100.00
17054;BME280;8643;48.824;11.422;2023-11-19T01:40:22;96903.34;;;4.02;100.00
17054;BME280;8643;48.824;11.422;2023-11-19T01:42:50;96899.56;;;4.03;100.00
17054;BME280;8643;48.824;11.422;2023-11-19T01:45:28;96900.56;;;4.07;100.00
17054;BME280;8643;48.824;11.422;2023-11-19T01:48:00;96888.13;;;4.06;100.00
17054;BME280;8643;48.824;11.422;2023-11-19T01:50:30;96879.84;;;3.97;100.00
17054;BME280;8643;48.824;11.422;2023-11-19T01:52:59;96883.31;;;4.03;100.00
17054;BME280;8643;48.824;11.422;2023-11-19T01:55:29;96887.59;;;4.04;100.00
17054;BME280;8643;48.824;11.422;2023-11-19T01:58:01;96871.63;;;4.02;100.00
17054;BME280;8643;48.824;11.422;2023-11-19T02:00:31;96864.34;;;4.03;100.00
17054;BME280;8643;48.824;11.422;2023-11-19T02:03:01;96858.91;;;4.03;100.00
17054;BME280;8643;48.824;11.422;2023-11-19T02:05:31;96844.53;;;4.02;100.00
17054;BME280;8643;48.824;11.422;2023-11-19T02:08:00;96846.16;;;4.03;100.00
17054;BME280;8643;48.824;11.422;2023-11-19T02:10:31;96843.16;;;4.05;100.00
17054;BME280;8643;48.824;11.422;2023-11-19T02:13:01;96845.28;;;4.08;100.00
17054;BME280;8643;48.824;11.422;2023-11-19T02:15:33;96838.84;;;4.04;100.00
17054;BME280;8643;48.824;11.422;2023-11-19T02:18:18;96827.69;;;4.06;100.00
17054;BME280;8643;48.824;11.422;2023-11-19T02:20:49;96824.19;;;4.05;100.00
17054;BME280;8643;48.824;11.422;2023-11-19T02:23:20;96815.28;;;4.04;100.00
17054;BME280;8643;48.824;11.422;2023-11-19T02:26:02;96818.19;;;4.08;100.00
17054;BME280;8643;48.824;11.422;2023-11-19T02:28:36;96815.69;;;4.12;100.00
17054;BME280;8643;48.824;11.422;2023-11-19T02:31:04;96809.78;;;4.10;100.00
17054;BME280;8643;48.824;11.422;2023-11-19T02:33:37;96811.97;;;4.08;100.00
17054;BME280;8643;48.824;11.422;2023-11-19T02:36:08;96813.00;;;4.12;100.00
17054;BME280;8643;48.824;11.422;2023-11-19T02:38:37;96805.72;;;4.07;100.00
17054;BME280;8643;48.824;11.422;2023-11-19T02:41:07;96807.66;;;4.07;100.00
17054;BME280;8643;48.824;11.422;2023-11-19T02:43:38;96814.41;;;4.09;100.00
17054;BME280;8643;48.824;11.422;2023-11-19T02:46:07;96801.06;;;4.13;100.00
17054;BME280;8643;48.824;11.422;2023-11-19T02:48:38;96800.22;;;4.12;100.00
17054;BME280;8643;48.824;11.422;2023-11-19T02:51:07;96790.50;;;4.11;100.00
17054;BME280;8643;48.824;11.422;2023-11-19T02:53:37;96787.81;;;4.11;100.00
17054;BME280;8643;48.824;11.422;2023-11-19T02:56:08;96793.16;;;4.16;100.00
17054;BME280;8643;48.824;11.422;2023-11-19T02:58:48;96793.94;;;4.17;100.00
17054;BME280;8643;48.824;11.422;2023-11-19T03:01:22;96782.22;;;4.21;100.00
17054;BME280;8643;48.824;11.422;2023-11-19T03:03:58;96790.06;;;4.23;100.00
17054;BME280;8643;48.824;11.422;2023-11-19T03:06:27;96788.16;;;4.23;100.00
17054;BME280;8643;48.824;11.422;2023-11-19T03:08:56;96779.00;;;4.19;100.00
17054;BME280;8643;48.824;11.422;2023-11-19T03:11:24;96770.88;;;4.19;100.00
17054;BME280;8643;48.824;11.422;2023-11-19T03:13:54;96771.38;;;4.21;100.00
17054;BME280;8643;48.824;11.422;2023-11-19T03:16:23;96771.28;;;4.27;100.00
17054;BME280;8643;48.824;11.422;2023-11-19T03:18:51;96772.91;;;4.28;100.00
17054;BME280;8643;48.824;11.422;2023-11-19T03:21:27;96767.50;;;4.28;100.00
17054;BME280;8643;48.824;11.422;2023-11-19T03:23:55;96765.78;;;4.32;100.00
17054;BME280;8643;48.824;11.422;2023-11-19T03:26:24;96771.22;;;4.32;100.00
17054;BME280;8643;48.824;11.422;2023-11-19T03:28:53;96773.94;;;4.32;100.00
17054;BME280;8643;48.824;11.422;2023-11-19T03:31:24;96774.47;;;4.34;100.00
17054;BME280;8643;48.824;11.422;2023-11-19T03:33:53;96780.09;;;4.37;100.00
17054;BME280;8643;48.824;11.422;2023-11-19T03:36:25;96772.25;;;4.36;100.00
17054;BME280;8643;48.824;11.422;2023-11-19T03:38:59;96767.13;;;4.34;100.00
17054;BME280;8643;48.824;11.422;2023-11-19T03:41:28;96772.75;;;4.38;100.00
17054;BME280;8643;48.824;11.422;2023-11-19T03:44:09;96773.19;;;4.45;100.00
17054;BME280;8643;48.824;11.422;2023-11-19T03:46:38;96771.06;;;4.42;100.00
17054;BME280;8643;48.824;11.422;2023-11-19T03:49:07;96768.38;;;4.42;100.00
17054;BME280;8643;48.824;11.422;2023-11-19T03:51:35;96772.66;;;4.43;100.00
17054;BME280;8643;48.824;11.422;2023-11-19T03:54:04;96770.47;;;4.45;100.00
17054;BME280;8643;48.824;11.422;2023-11-19T03:56:34;96783.16;;;4.50;100.00
17054;BME280;8643;48.824;11.422;2023-11-19T03:59:03;96783.44;;;4.48;100.00
17054;BME280;8643;48.824;11.422;2023-11-19T04:01:33;96787.75;;;4.49;100.00
17054;BME280;8643;48.824;11.422;2023-11-19T04:04:02;96776.13;;;4.49;100.00
17054;BME280;8643;48.824;11.422;2023-11-19T04:06:31;96779.31;;;4.51;100.00
17054;BME280;8643;48.824;11.422;2023-11-19T04:08:59;96773.09;;;4.50;100.00
17054;BME280;8643;48.824;11.422;2023-11-19T04:11:28;96774.09;;;4.54;100.00
17054;BME280;8643;48.824;11.422;2023-11-19T04:13:57;96778.16;;;4.57;100.00
17054;BME280;8643;48.824;11.422;2023-11-19T04:16:27;96776.22;;;4.57;100.00
17054;BME280;8643;48.824;11.422;2023-11-19T04:18:58;96782.16;;;4.59;100.00
17054;BME280;8643;48.824;11.422;2023-11-19T04:21:26;96765.28;;;4.63;100.00
17054;BME280;8643;48.824;11.422;2023-11-19T04:23:55;96757.69;;;4.65;100.00
17054;BME280;8643;48.824;11.422;2023-11-19T04:26:23;96748.44;;;4.66;100.00
17054;BME280;8643;48.824;11.422;2023-11-19T04:28:52;96734.88;;;4.66;100.00
17054;BME280;8643;48.824;11.422;2023-11-19T04:31:20;96728.75;;;4.74;100.00
17054;BME280;8643;48.824;11.422;2023-11-19T04:33:49;96722.53;;;4.73;100.00
17054;BME280;8643;48.824;11.422;2023-11-19T04:36:20;96714.09;;;4.75;100.00
17054;BME280;8643;48.824;11.422;2023-11-19T04:38:51;96727.84;;;4.78;100.00
17054;BME280;8643;48.824;11.422;2023-11-19T04:41:20;96722.94;;;4.81;100.00
17054;BME280;8643;48.824;11.422;2023-11-19T04:43:48;96729.19;;;4.81;100.00
17054;BME280;8643;48.824;11.422;2023-11-19T04:46:17;96731.91;;;4.81;100.00
17054;BME280;8643;48.824;11.422;2023-11-19T04:48:46;96714.78;;;4.81;100.00
17054;BME280;8643;48.824;11.422;2023-11-19T04:51:14;96711.59;;;4.78;100.00
17054;BME280;8643;48.824;11.422;2023-11-19T04:53:45;96711.47;;;4.84;100.00
17054;BME280;8643;48.824;11.422;2023-11-19T04:56:13;96715.53;;;4.86;100.00
17054;BME280;8643;48.824;11.422;2023-11-19T04:58:44;96712.50;;;4.88;100.00
17054;BME280;8643;48.824;11.422;2023-11-19T05:01:14;96698.16;;;4.87;100.00
17054;BME280;8643;48.824;11.422;2023-11-19T05:03:44;96701.34;;;4.89;100.00
17054;BME280;8643;48.824;11.422;2023-11-19T05:06:13;96704.75;;;4.95;100.00
17054;BME280;8643;48.824;11.422;2023-11-19T05:08:43;96719.25;;;5.04;100.00
17054;BME280;8643;48.824;11.422;2023-11-19T05:11:12;96727.19;;;5.14;100.00
17054;BME280;8643;48.824;11.422;2023-11-19T05:13:45;96734.63;;;5.23;100.00
17054;BME280;8643;48.824;11.422;2023-11-19T05:16:13;96741.06;;;5.27;100.00
17054;BME280;8643;48.824;11.422;2023-11-19T05:18:42;96742.06;;;5.31;100.00
17054;BME280;8643;48.824;11.422;2023-11-19T05:21:12;96748.00;;;5.33;100.00
17054;BME280;8643;48.824;11.422;2023-11-19T05:23:41;96736.75;;;5.40;100.00
17054;BME280;8643;48.824;11.422;2023-11-19T05:26:09;96741.75;;;5.46;100.00
17054;BME280;8643;48.824;11.422;2023-11-19T05:28:39;96744.97;;;5.48;100.00
17054;BME280;8643;48.824;11.422;2023-11-19T05:31:08;96750.91;;;5.50;100.00
17054;BME280;8643;48.824;11.422;2023-11-19T05:33:36;96752.72;;;5.55;100.00
17054;BME280;8643;48.824;11.422;2023-11-19T05:36:06;96745.75;;;5.63;100.00
17054;BME280;8643;48.824;11.422;2023-11-19T05:38:35;96741.22;;;5.72;100.00
17054;BME280;8643;48.824;11.422;2023-11-19T05:41:05;96754.88;;;5.81;100.00
17054;BME280;8643;48.824;11.422;2023-11-19T05:43:33;96747.84;;;5.80;100.00
17054;BME280;8643;48.824;11.422;2023-11-19T05:46:04;96738.28;;;5.82;100.00
17054;BME280;8643;48.824;11.422;2023-11-19T05:48:46;96732.06;;;5.82;100.00
17054;BME280;8643;48.824;11.422;2023-11-19T05:51:15;96732.53;;;5.84;100.00
17054;BME280;8643;48.824;11.422;2023-11-19T05:53:44;96727.91;;;5.84;100.00
17054;BME280;8643;48.824;11.422;2023-11-19T05:56:13;96719.94;;;5.88;100.00
17054;BME280;8643;48.824;11.422;2023-11-19T05:58:43;96720.22;;;5.86;100.00
17054;BME280;8643;48.824;11.422;2023-11-19T06:01:13;96718.94;;;5.84;100.00
17054;BME280;8643;48.824;11.422;2023-11-19T06:03:42;96710.19;;;5.87;100.00
17054;BME280;8643;48.824;11.422;2023-11-19T06:06:14;96706.03;;;5.90;100.00
17054;BME280;8643;48.824;11.422;2023-11-19T06:08:43;96708.44;;;5.91;100.00
17054;BME280;8643;48.824;11.422;2023-11-19T06:11:12;96705.44;;;5.93;100.00
17054;BME280;8643;48.824;11.422;2023-11-19T06:13:45;96703.19;;;5.95;100.00
17054;BME280;8643;48.824;11.422;2023-11-19T06:16:15;96708.34;;;5.96;100.00
17054;BME280;8643;48.824;11.422;2023-11-19T06:18:44;96709.47;;;5.95;100.00
17054;BME280;8643;48.824;11.422;2023-11-19T06:21:13;96707.63;;;6.04;100.00
17054;BME280;8643;48.824;11.422;2023-11-19T06:23:41;96708.13;;;6.07;100.00
17054;BME280;8643;48.824;11.422;2023-11-19T06:26:10;96718.09;;;6.11;100.00
17054;BME280;8643;48.824;11.422;2023-11-19T06:28:39;96714.75;;;6.14;100.00
17054;BME280;8643;48.824;11.422;2023-11-19T06:31:07;96713.03;;;6.18;100.00
17054;BME280;8643;48.824;11.422;2023-11-19T06:33:37;96716.03;;;6.17;100.00
17054;BME280;8643;48.824;11.422;2023-11-19T06:36:07;96715.44;;;6.20;100.00
17054;BME280;8643;48.824;11.422;2023-11-19T06:38:36;96724.88;;;6.22;100.00
17054;BME280;8643;48.824;11.422;2023-11-19T06:41:08;96730.09;;;6.33;100.00
17054;BME280;8643;48.824;11.422;2023-11-19T06:43:37;96730.25;;;6.36;100.00
17054;BME280;8643;48.824;11.422;2023-11-19T06:46:15;96723.59;;;6.42;100.00
17054;BME280;8643;48.824;11.422;2023-11-19T06:48:46;96717.66;;;6.40;100.00
17054;BME280;8643;48.824;11.422;2023-11-19T06:51:14;96716.06;;;6.39;100.00
17054;BME280;8643;48.824;11.422;2023-11-19T06:53:43;96719.88;;;6.38;100.00
17054;BME280;8643;48.824;11.422;2023-11-19T06:56:21;96715.59;;;6.46;100.00
17054;BME280;8643;48.824;11.422;2023-11-19T06:58:50;96716.41;;;6.47;100.00
17054;BME280;8643;48.824;11.422;2023-11-19T07:01:19;96711.47;;;6.49;100.00
17054;BME280;8643;48.824;11.422;2023-11-19T07:03:49;96711.97;;;6.51;100.00
17054;BME280;8643;48.824;11.422;2023-11-19T07:06:18;96715.47;;;6.51;100.00
17054;BME280;8643;48.824;11.422;2023-11-19T07:09:01;96719.63;;;6.49;100.00
17054;BME280;8643;48.824;11.422;2023-11-19T07:11:37;96724.03;;;6.58;100.00
17054;BME280;8643;48.824;11.422;2023-11-19T07:14:07;96729.16;;;6.60;100.00
17054;BME280;8643;48.824;11.422;2023-11-19T07:16:36;96733.75;;;6.59;100.00
17054;BME280;8643;48.824;11.422;2023-11-19T07:19:07;96738.59;;;6.63;100.00
17054;BME280;8643;48.824;11.422;2023-11-19T07:21:36;96739.91;;;6.65;100.00
17054;BME280;8643;48.824;11.422;2023-11-19T07:24:07;96738.47;;;6.68;100.00
17054;BME280;8643;48.824;11.422;2023-11-19T07:26:36;96730.38;;;6.76;100.00
17054;BME280;8643;48.824;11.422;2023-11-19T07:29:05;96745.72;;;6.81;100.00
17054;BME280;8643;48.824;11.422;2023-11-19T07:31:35;96741.41;;;6.80;100.00
17054;BME280;8643;48.824;11.422;2023-11-19T07:34:06;96747.81;;;6.84;100.00
17054;BME280;8643;48.824;11.422;2023-11-19T07:36:37;96740.19;;;6.86;100.00
17054;BME280;8643;48.824;11.422;2023-11-19T07:39:06;96730.63;;;6.97;100.00
17054;BME280;8643;48.824;11.422;2023-11-19T07:41:35;96742.94;;;6.95;100.00
17054;BME280;8643;48.824;11.422;2023-11-19T07:44:05;96744.88;;;6.94;100.00
17054;BME280;8643;48.824;11.422;2023-11-19T07:46:34;96743.72;;;6.95;100.00
17054;BME280;8643;48.824;11.422;2023-11-19T07:49:03;96746.00;;;7.02;100.00
17054;BME280;8643;48.824;11.422;2023-11-19T07:51:33;96748.91;;;7.06;100.00
17054;BME280;8643;48.824;11.422;2023-11-19T07:54:01;96752.91;;;7.08;100.00
17054;BME280;8643;48.824;11.422;2023-11-19T07:56:29;96762.09;;;7.12;100.00
17054;BME280;8643;48.824;11.422;2023-11-19T07:58:58;96762.56;;;7.14;100.00
17054;BME280;8643;48.824;11.422;2023-11-19T08:01:27;96759.34;;;7.12;100.00
17054;BME280;8643;48.824;11.422;2023-11-19T08:03:55;96754.88;;;7.16;100.00
17054;BME280;8643;48.824;11.422;2023-11-19T08:06:26;96758.91;;;7.19;100.00
17054;BME280;8643;48.824;11.422;2023-11-19T08:08:56;96756.19;;;7.28;100.00
17054;BME280;8643;48.824;11.422;2023-11-19T08:11:25;96749.97;;;7.36;100.00
17054;BME280;8643;48.824;11.422;2023-11-19T08:13:54;96760.22;;;7.30;100.00
17054;BME280;8643;48.824;11.422;2023-11-19T08:16:22;96761.03;;;7.31;100.00
17054;BME280;8643;48.824;11.422;2023-11-19T08:18:50;96755.75;;;7.34;100.00
17054;BME280;8643;48.824;11.422;2023-11-19T08:21:19;96760.72;;;7.32;100.00
17054;BME280;8643;48.824;11.422;2023-11-19T08:23:50;96762.00;;;7.35;100.00
17054;BME280;8643;48.824;11.422;2023-11-19T08:26:19;96760.72;;;7.41;100.00
17054;BME280;8643;48.824;11.422;2023-11-19T08:28:48;96752.91;;;7.48;100.00
17054;BME280;8643;48.824;11.422;2023-11-19T08:31:16;96759.38;;;7.61;100.00
17054;BME280;8643;48.824;11.422;2023-11-19T08:33:45;96765.16;;;7.68;100.00
17054;BME280;8643;48.824;11.422;2023-11-19T08:36:16;96762.09;;;7.61;100.00
17054;BME280;8643;48.824;11.422;2023-11-19T08:38:45;96771.38;;;7.69;100.00
17054;BME280;8643;48.824;11.422;2023-11-19T08:41:16;96763.53;;;7.67;100.00
17054;BME280;8643;48.824;11.422;2023-11-19T08:43:46;96767.88;;;7.68;100.00
17054;BME280;8643;48.824;11.422;2023-11-19T08:46:15;96775.72;;;7.70;100.00
17054;BME280;8643;48.824;11.422;2023-11-19T08:48:43;96778.31;;;7.75;100.00
17054;BME280;8643;48.824;11.422;2023-11-19T08:51:12;96780.25;;;7.75;100.00
17054;BME280;8643;48.824;11.422;2023-11-19T08:53:40;96773.34;;;7.77;100.00
17054;BME280;8643;48.824;11.422;2023-11-19T08:56:09;96778.16;;;7.80;100.00
17054;BME280;8643;48.824;11.422;2023-11-19T08:58:38;96772.06;;;7.83;100.00
17054;BME280;8643;48.824;11.422;2023-11-19T09:01:08;96766.63;;;7.83;100.00
17054;BME280;8643;48.824;11.422;2023-11-19T09:03:37;96771.75;;;7.85;100.00
17054;BME280;8643;48.824;11.422;2023-11-19T09:06:06;96760.06;;;7.93;100.00
17054;BME280;8643;48.824;11.422;2023-11-19T09:08:35;96768.06;;;7.98;100.00
17054;BME280;8643;48.824;11.422;2023-11-19T09:11:07;96766.00;;;7.95;100.00
17054;BME280;8643;48.824;11.422;2023-11-19T09:13:36;96759.41;;;8.05;100.00
17054;BME280;8643;48.824;11.422;2023-11-19T09:16:06;96760.25;;;8.14;100.00
17054;BME280;8643;48.824;11.422;2023-11-19T09:18:35;96761.50;;;8.34;100.00
17054;BME280;8643;48.824;11.422;2023-11-19T09:21:05;96764.91;;;8.40;100.00
17054;BME280;8643;48.824;11.422;2023-11-19T09:23:34;96752.88;;;8.41;100.00
17054;BME280;8643;48.824;11.422;2023-11-19T09:26:08;96756.09;;;8.43;100.00
17054;BME280;8643;48.824;11.422;2023-11-19T09:28:37;96773.41;;;8.47;100.00
17054;BME280;8643;48.824;11.422;2023-11-19T09:31:13;96780.81;;;8.38;100.00
17054;BME280;8643;48.824;11.422;2023-11-19T09:33:44;96776.94;;;8.39;100.00
17054;BME280;8643;48.824;11.422;2023-11-19T09:36:13;96786.25;;;8.38;100.00
17054;BME280;8643;48.824;11.422;2023-11-19T09:38:44;96791.38;;;8.31;100.00
17054;BME280;8643;48.824;11.422;2023-11-19T09:41:12;96784.81;;;8.32;100.00
17054;BME280;8643;48.824;11.422;2023-11-19T09:43:42;96782.69;;;8.37;100.00
17054;BME280;8643;48.824;11.422;2023-11-19T09:46:13;96777.06;;;8.42;100.00
17054;BME280;8643;48.824;11.422;2023-11-19T09:48:45;96774.03;;;8.35;100.00
17054;BME280;8643;48.824;11.422;2023-11-19T09:51:15;96776.78;;;8.35;100.00
17054;BME280;8643;48.824;11.422;2023-11-19T09:53:44;96771.31;;;8.35;100.00
17054;BME280;8643;48.824;11.422;2023-11-19T09:56:13;96758.66;;;8.39;100.00
17054;BME280;8643;48.824;11.422;2023-11-19T09:58:44;96756.09;;;8.43;100.00
17054;BME280;8643;48.824;11.422;2023-11-19T10:01:12;96743.75;;;8.54;100.00
17054;BME280;8643;48.824;11.422;2023-11-19T10:03:47;96744.03;;;8.61;100.00
17054;BME280;8643;48.824;11.422;2023-11-19T10:06:16;96746.28;;;8.59;100.00
17054;BME280;8643;48.824;11.422;2023-11-19T10:08:46;96750.78;;;8.64;100.00
17054;BME280;8643;48.824;11.422;2023-11-19T10:11:15;96747.09;;;8.60;100.00
17054;BME280;8643;48.824;11.422;2023-11-19T10:13:43;96749.81;;;8.60;100.00
17054;BME280;8643;48.824;11.422;2023-11-19T10:16:15;96750.16;;;8.67;100.00
17054;BME280;8643;48.824;11.422;2023-11-19T10:18:48;96728.91;;;8.73;100.00
17054;BME280;8643;48.824;11.422;2023-11-19T10:21:18;96739.03;;;8.81;100.00
17054;BME280;8643;48.824;11.422;2023-11-19T10:23:49;96733.19;;;8.91;100.00
17054;BME280;8643;48.824;11.422;2023-11-19T10:26:21;96737.72;;;8.87;100.00
17054;BME280;8643;48.824;11.422;2023-11-19T10:28:50;96736.28;;;8.90;100.00
17054;BME280;8643;48.824;11.422;2023-11-19T10:31:20;96725.31;;;8.98;100.00
17054;BME280;8643;48.824;11.422;2023-11-19T10:33:53;96725.78;;;9.01;100.00
17054;BME280;8643;48.824;11.422;2023-11-19T10:36:22;96735.28;;;9.03;100.00
17054;BME280;8643;48.824;11.422;2023-11-19T10:38:54;96732.88;;;9.02;100.00
17054;BME280;8643;48.824;11.422;2023-11-19T10:41:29;96726.72;;;9.13;100.00
17054;BME280;8643;48.824;11.422;2023-11-19T10:43:59;96720.72;;;9.20;100.00
17054;BME280;8643;48.824;11.422;2023-11-19T10:46:39;96727.16;;;9.24;100.00
17054;BME280;8643;48.824;11.422;2023-11-19T10:49:10;96727.91;;;9.33;100.00
17054;BME280;8643;48.824;11.422;2023-11-19T10:51:45;96713.41;;;9.42;100.00
17054;BME280;8643;48.824;11.422;2023-11-19T10:54:18;96726.91;;;9.68;100.00
17054;BME280;8643;48.824;11.422;2023-11-19T10:56:58;96717.06;;;9.76;100.00
17054;BME280;8643;48.824;11.422;2023-11-19T10:59:31;96715.88;;;10.06;100.00
17054;BME280;8643;48.824;11.422;2023-11-19T11:02:07;96708.78;;;10.05;100.00
17054;BME280;8643;48.824;11.422;2023-11-19T11:04:40;96720.69;;;10.09;100.00
17054;BME280;8643;48.824;11.422;2023-11-19T11:07:11;96708.00;;;10.26;100.00
17054;BME280;8643;48.824;11.422;2023-11-19T11:09:42;96714.69;;;10.37;100.00
17054;BME280;8643;48.824;11.422;2023-11-19T11:12:12;96714.91;;;10.32;100.00
17054;BME280;8643;48.824;11.422;2023-11-19T11:14:44;96709.34;;;10.20;100.00
17054;BME280;8643;48.824;11.422;2023-11-19T11:17:16;96703.19;;;10.23;100.00
17054;BME280;8643;48.824;11.422;2023-11-19T11:19:47;96710.69;;;10.14;100.00
17054;BME280;8643;48.824;11.422;2023-11-19T11:22:17;96705.59;;;10.24;100.00
17054;BME280;8643;48.824;11.422;2023-11-19T11:25:19;96711.19;;;10.28;100.00
17054;BME280;8643;48.824;11.422;2023-11-19T11:28:08;96704.53;;;10.17;100.00
17054;BME280;8643;48.824;11.422;2023-11-19T11:31:03;96702.41;;;10.01;100.00
17054;BME280;8643;48.824;11.422;2023-11-19T11:33:59;96701.47;;;9.97;100.00
17054;BME280;8643;48.824;11.422;2023-11-19T11:36:47;96703.06;;;9.98;100.00
17054;BME280;8643;48.824;11.422;2023-11-19T11:39:22;96690.13;;;10.07;100.00
17054;BME280;8643;48.824;11.422;2023-11-19T11:42:35;96683.25;;;10.43;100.00
17054;BME280;8643;48.824;11.422;2023-11-19T11:45:06;96685.38;;;10.83;100.00
17054;BME280;8643;48.824;11.422;2023-11-19T11:48:11;96685.66;;;11.03;100.00
17054;BME280;8643;48.824;11.422;2023-11-19T11:50:52;96685.53;;;10.87;100.00
17054;BME280;8643;48.824;11.422;2023-11-19T11:53:24;96690.22;;;10.99;100.00
17054;BME280;8643;48.824;11.422;2023-11-19T11:55:56;96686.88;;;10.93;100.00
17054;BME280;8643;48.824;11.422;2023-11-19T11:58:35;96676.06;;;11.09;100.00
17054;BME280;8643;48.824;11.422;2023-11-19T12:01:06;96683.63;;;11.00;100.00
17054;BME280;8643;48.824;11.422;2023-11-19T12:03:37;96677.75;;;11.01;100.00
17054;BME280;8643;48.824;11.422;2023-11-19T12:06:07;96678.25;;;11.16;100.00
17054;BME280;8643;48.824;11.422;2023-11-19T12:08:39;96675.25;;;11.70;100.00
17054;BME280;8643;48.824;11.422;2023-11-19T12:11:11;96670.88;;;11.94;100.00
17054;BME280;8643;48.824;11.422;2023-11-19T12:13:52;96667.16;;;12.43;100.00
17054;BME280;8643;48.824;11.422;2023-11-19T12:16:21;96680.19;;;13.06;100.00
17054;BME280;8643;48.824;11.422;2023-11-19T12:18:50;96668.72;;;14.23;100.00
17054;BME280;8643;48.824;11.422;2023-11-19T12:21:29;96673.19;;;13.09;100.00
17054;BME280;8643;48.824;11.422;2023-11-19T12:24:00;96674.19;;;13.00;100.00
17054;BME280;8643;48.824;11.422;2023-11-19T12:26:39;96661.66;;;15.30;100.00
17054;BME280;8643;48.824;11.422;2023-11-19T12:29:08;96655.91;;;15.43;100.00
17054;BME280;8643;48.824;11.422;2023-11-19T12:31:44;96651.53;;;14.29;100.00
17054;BME280;8643;48.824;11.422;2023-11-19T12:34:12;96666.47;;;13.73;100.00
17054;BME280;8643;48.824;11.422;2023-11-19T12:36:42;96653.47;;;14.09;100.00
17054;BME280;8643;48.824;11.422;2023-11-19T12:39:12;96642.56;;;13.26;100.00
17054;BME280;8643;48.824;11.422;2023-11-19T12:41:52;96643.41;;;12.35;100.00
17054;BME280;8643;48.824;11.422;2023-11-19T12:44:22;96639.03;;;12.94;100.00
17054;BME280;8643;48.824;11.422;2023-11-19T12:47:02;96636.28;;;13.26;100.00
17054;BME280;8643;48.824;11.422;2023-11-19T12:49:30;96631.09;;;12.73;100.00
17054;BME280;8643;48.824;11.422;2023-11-19T12:51:59;96637.00;;;12.59;100.00
17054;BME280;8643;48.824;11.422;2023-11-19T12:54:37;96632.72;;;12.45;100.00
17054;BME280;8643;48.824;11.422;2023-11-19T12:57:05;96641.31;;;13.91;100.00
17054;BME280;8643;48.824;11.422;2023-11-19T12:59:34;96640.59;;;14.14;100.00
17054;BME280;8643;48.824;11.422;2023-11-19T13:02:02;96637.72;;;14.26;100.00
17054;BME280;8643;48.824;11.422;2023-11-19T13:04:33;96637.28;;;13.33;100.00
17054;BME280;8643;48.824;11.422;2023-11-19T13:07:02;96638.97;;;13.22;100.00
17054;BME280;8643;48.824;11.422;2023-11-19T13:09:33;96646.22;;;12.82;100.00
17054;BME280;8643;48.824;11.422;2023-11-19T13:12:13;96642.88;;;12.89;100.00
17054;BME280;8643;48.824;11.422;2023-11-19T13:14:42;96639.72;;;12.59;100.00
17054;BME280;8643;48.824;11.422;2023-11-19T13:17:16;96636.81;;;12.68;100.00